Carrington, Missouri
Current Conditions -  °F | °C
As of 4:54 PM on Wednesday 26 Nov 2014 (Local Time) from KCOU Reporting Station
Light Rain Light Rain  
Wind Chill: 28°   Ceiling: 1300
Heat Index: 37°   Visibility: 10mi
Dew Point: 34°   Wind: 14mph
Humidity: 89%   Direction: 290°WNW
Pressure: 30.03"   Gusts: NA
Location:  38.8555°N, 91.9568°W
Report Text: KCOU 262254Z 29012KT 10SM -RA OVC013 03/01 A3003 RMK AO2 UPB45E54 SLP174 P0002 T00280011
Loading
Personal Weather Stations






























Interactive Weather Map New forecast layout! Learn more

10-Day Weather Forecast

Advertisements
Track Severe Weather on mobile